Time;durP1;ratioP1;P1;durP2;ratioP2;P2;SDS_P1;SDS_P2;PMS_P1;PMS_P2;Temp;Humidity;BMP_temperature;BMP_pressure;BME280_temperature;BME280_humidity;BME280_pressure;Samples;Min_cycle;Max_cycle;Signal;HPM_P1;HPM_P2
2022/07/31 00:00:49;;;;;;;18.80;3.30;;;;;;;25.40;56.69;99553.81;7308784;19;129220;-40
2022/07/31 00:03:14;;;;;;;33.93;4.03;;;;;;;25.30;56.70;99543.38;7317874;19;129727;-34
2022/07/31 00:05:40;;;;;;;30.77;4.10;;;;;;;25.40;56.96;99559.06;7317729;19;129232;-33
2022/07/31 00:08:06;;;;;;;41.33;4.87;;;;;;;25.39;57.15;99563.50;7316601;19;131521;-38
2022/07/31 00:10:31;;;;;;;22.42;3.45;;;;;;;25.39;56.51;99552.16;7317249;19;129685;-44
2022/07/31 00:12:56;;;;;;;28.43;3.67;;;;;;;25.39;56.05;99557.41;7317930;19;129861;-40
2022/07/31 00:15:22;;;;;;;19.07;3.37;;;;;;;25.39;56.44;99552.97;7316529;19;130823;-36
2022/07/31 00:17:48;;;;;;;38.07;4.37;;;;;;;25.39;57.03;99560.03;7316141;19;129049;-35
2022/07/31 00:20:15;;;;;;;48.60;5.40;;;;;;;25.29;56.85;99546.19;7315503;19;129830;-34
2022/07/31 00:22:42;;;;;;;34.08;4.32;;;;;;;25.38;56.95;99561.88;7316064;19;131002;-40
2022/07/31 00:25:08;;;;;;;;;;;;;;;25.44;58.08;99555.94;7317683;19;129204;-35
2022/07/31 00:27:34;;;;;;;31.77;4.20;;;;;;;25.39;56.83;99552.16;7315335;19;129275;-38
2022/07/31 00:29:59;;;;;;;42.63;4.70;;;;;;;25.39;56.34;99554.78;7315770;19;130660;-33
2022/07/31 00:32:25;;;;;;;25.67;3.77;;;;;;;25.37;57.20;99554.16;7316541;19;129193;-33
2022/07/31 00:34:50;;;;;;;35.50;4.40;;;;;;;25.38;56.91;99550.50;7317031;19;129834;-31
2022/07/31 00:37:16;;;;;;;33.13;4.23;;;;;;;25.38;56.42;99545.25;7315636;19;130909;-34
2022/07/31 00:39:41;;;;;;;24.57;3.83;;;;;;;25.38;56.54;99550.50;7313256;19;129736;-38
2022/07/31 00:42:17;;;;;;;26.87;3.73;;;;;;;25.39;58.60;99552.16;7313765;19;131476;-32
2022/07/31 00:44:43;;;;;;;29.85;3.97;;;;;;;25.28;57.20;99534.03;7316347;19;129070;-31
2022/07/31 00:47:08;;;;;;;28.60;3.67;;;;;;;25.36;56.36;99552.47;7316450;19;129152;-36
2022/07/31 00:49:34;;;;;;;27.83;3.83;;;;;;;25.38;56.70;99555.78;7312212;19;130170;-40
2022/07/31 00:51:59;;;;;;;30.03;3.87;;;;;;;25.37;56.58;99557.56;7316676;19;129725;-35
2022/07/31 00:54:25;;;;;;;30.83;3.60;;;;;;;25.36;57.38;99555.94;7316727;19;129256;-34
2022/07/31 00:56:50;;;;;;;30.40;3.73;;;;;;;25.37;57.27;99559.41;7316630;19;129034;-38
2022/07/31 00:59:16;;;;;;;39.00;4.33;;;;;;;25.37;57.08;99554.94;7312638;19;129367;-34
2022/07/31 01:01:41;;;;;;;31.83;4.07;;;;;;;25.37;57.06;99552.31;7313724;19;129750;-35
2022/07/31 01:04:06;;;;;;;19.63;3.33;;;;;;;25.30;57.00;99545.22;7316536;19;129688;-36
2022/07/31 01:06:32;;;;;;;28.53;3.73;;;;;;;25.38;57.14;99556.59;7316938;19;129310;-39
2022/07/31 01:08:57;;;;;;;21.93;3.17;;;;;;;25.38;56.14;99561.03;7314548;19;130539;-36
2022/07/31 01:11:46;;;;;;;27.37;3.90;;;;;;;25.39;58.46;99563.50;7314883;19;129412;-35
2022/07/31 01:14:13;;;;;;;30.13;3.85;;;;;;;25.36;57.21;99561.22;7312837;19;130490;-34
2022/07/31 01:16:50;;;;;;;42.17;4.40;;;;;;;25.38;57.92;99561.88;7312382;19;129649;-30
2022/07/31 01:19:36;;;;;;;38.03;4.68;;;;;;;25.38;58.26;99563.66;7311297;19;129811;-34
2022/07/31 01:22:27;;;;;;;26.35;3.95;;;;;;;25.38;58.54;99561.03;7312940;19;130352;-38
2022/07/31 01:25:04;;;;;;;22.13;3.33;;;;;;;25.37;58.01;99562.03;7315383;19;129044;-36
2022/07/31 01:27:36;;;;;;;;;;;;;;;25.43;58.41;99553.47;7315171;19;130277;-37
2022/07/31 01:30:03;;;;;;;13.10;2.40;;;;;;;25.37;56.76;99559.41;7315052;19;129076;-39
2022/07/31 01:32:36;;;;;;;41.83;4.72;;;;;;;25.36;57.60;99563.84;7313290;19;129718;-37
2022/07/31 01:35:10;;;;;;;24.27;3.15;;;;;;;25.33;58.01;99553.63;7315868;19;129957;-44
2022/07/31 01:37:41;;;;;;;37.17;4.30;;;;;;;25.35;57.99;99572.69;7313631;19;130625;-35
2022/07/31 01:40:19;;;;;;;27.45;3.28;;;;;;;25.35;57.85;99559.53;7313826;19;131220;-35
2022/07/31 01:42:50;;;;;;;26.25;3.33;;;;;;;25.35;58.07;99556.09;7314353;19;129121;-36
2022/07/31 01:45:19;;;;;;;31.98;3.85;;;;;;;25.34;57.69;99555.25;7313829;19;129065;-39
2022/07/31 01:47:46;;;;;;;28.25;3.83;;;;;;;25.36;57.24;99552.47;7313340;19;129179;-38
2022/07/31 01:50:13;;;;;;;28.55;3.78;;;;;;;25.38;56.63;99550.50;7313586;19;129471;-36
2022/07/31 01:52:39;;;;;;;27.60;3.67;;;;;;;25.28;56.19;99534.03;7314069;19;129743;-37
2022/07/31 01:55:06;;;;;;;29.17;3.63;;;;;;;25.27;56.60;99546.34;7313985;19;129415;-36
2022/07/31 01:57:33;;;;;;;51.75;5.75;;;;;;;25.35;57.11;99556.09;7312591;19;129096;-38
2022/07/31 02:00:01;;;;;;;19.83;2.78;;;;;;;25.35;57.04;99556.09;7314902;19;131642;-36
2022/07/31 02:02:27;;;;;;;39.15;4.25;;;;;;;25.35;56.46;99553.47;7313894;19;130683;-38
2022/07/31 02:04:54;;;;;;;21.73;3.08;;;;;;;25.35;56.89;99556.91;7314196;19;129306;-35
2022/07/31 02:07:21;;;;;;;49.88;5.70;;;;;;;25.36;56.96;99549.84;7312639;19;129147;-36
2022/07/31 02:09:47;;;;;;;26.20;3.50;;;;;;;25.36;56.40;99547.22;7313313;19;129651;-37
2022/07/31 02:12:13;;;;;;;31.38;4.03;;;;;;;25.36;56.28;99544.59;7313033;19;129304;-41
2022/07/31 02:14:41;;;;;;;37.47;4.55;;;;;;;25.35;57.04;99540.31;7312456;19;131307;-37
2022/07/31 02:17:08;;;;;;;31.50;3.97;;;;;;;25.35;56.67;99537.69;7313722;19;129196;-35
2022/07/31 02:19:39;;;;;;;29.58;3.63;;;;;;;25.35;57.69;99533.22;7308664;19;129411;-38
2022/07/31 02:22:05;;;;;;;23.33;3.25;;;;;;;25.35;56.69;99535.84;7311098;19;130479;-35
2022/07/31 02:24:31;;;;;;;23.73;3.58;;;;;;;25.36;56.89;99539.31;7312830;19;128942;-38
2022/07/31 02:26:57;;;;;;;21.07;3.03;;;;;;;25.35;57.12;99535.06;7314513;19;129377;-33
2022/07/31 02:29:24;;;;;;;31.98;3.85;;;;;;;25.36;56.07;99534.88;7309821;19;130305;-36
2022/07/31 02:31:54;;;;;;;51.55;5.25;;;;;;;25.35;56.32;99530.59;7312986;19;129447;-38
2022/07/31 02:34:22;;;;;;;32.47;4.05;;;;;;;25.35;56.61;99529.78;7313068;19;129602;-39
2022/07/31 02:36:48;;;;;;;39.67;4.57;;;;;;;25.29;56.82;99518.06;7313666;19;129512;-35
2022/07/31 02:39:15;;;;;;;45.73;5.03;;;;;;;25.27;56.92;99508.72;7309376;19;129773;-33
2022/07/31 02:41:41;;;;;;;31.02;4.10;;;;;;;25.34;56.14;99517.56;7311489;19;131382;-36
2022/07/31 02:44:10;;;;;;;30.17;4.07;;;;;;;25.34;57.68;99513.13;7312174;19;129039;-34
2022/07/31 02:46:36;;;;;;;25.83;3.40;;;;;;;25.33;55.94;99526.47;7312932;19;129397;-41
2022/07/31 02:49:02;;;;;;;15.23;2.63;;;;;;;25.34;56.65;99522.84;7309844;19;130058;-41
2022/07/31 02:51:28;;;;;;;22.70;3.63;;;;;;;25.35;57.27;99522.69;7313156;19;129386;-33
2022/07/31 02:53:54;;;;;;;28.70;3.78;;;;;;;25.33;56.41;99511.50;7313339;19;129667;-34
2022/07/31 02:56:21;;;;;;;28.00;3.57;;;;;;;25.33;56.88;99516.78;7313319;19;130096;-35
2022/07/31 02:58:46;;;;;;;26.13;3.75;;;;;;;25.33;56.69;99510.66;7309626;19;129695;-36
2022/07/31 03:01:13;;;;;;;37.43;4.47;;;;;;;25.34;56.76;99507.03;7310657;19;129483;-41
2022/07/31 03:03:38;;;;;;;24.35;3.50;;;;;;;25.32;56.96;99498.50;7313353;19;129044;-38
2022/07/31 03:06:04;;;;;;;29.07;3.47;;;;;;;25.33;56.55;99500.16;7312621;19;129430;-36
2022/07/31 03:08:30;;;;;;;23.07;3.37;;;;;;;25.33;55.96;99500.97;7309829;19;130071;-37
2022/07/31 03:10:55;;;;;;;19.43;3.10;;;;;;;25.27;56.72;99487.66;7311777;19;130991;-39
2022/07/31 03:13:24;;;;;;;23.70;3.40;;;;;;;25.34;57.85;99494.72;7312701;19;130309;-36
2022/07/31 03:15:50;;;;;;;16.20;2.90;;;;;;;25.33;56.65;99500.16;7311529;19;129099;-35
2022/07/31 03:18:18;;;;;;;34.80;4.15;;;;;;;25.33;56.95;99500.97;7309445;19;129217;-32
2022/07/31 03:20:44;;;;;;;36.55;4.25;;;;;;;25.34;55.91;99499.16;7311449;19;129566;-37
2022/07/31 03:23:12;;;;;;;27.95;3.47;;;;;;;25.33;56.91;99494.88;7310944;19;129148;-36
2022/07/31 03:25:40;;;;;;;26.48;3.50;;;;;;;25.34;57.00;99496.50;7311224;19;129162;-33
2022/07/31 03:28:05;;;;;;;63.90;6.07;;;;;;;25.33;56.77;99489.63;7305380;19;129112;-39
2022/07/31 03:30:31;;;;;;;35.47;3.97;;;;;;;25.33;56.43;99489.63;7306270;19;131673;-38
2022/07/31 03:32:56;;;;;;;21.43;3.37;;;;;;;25.34;56.32;99483.34;7311403;19;129831;-34
2022/07/31 03:35:23;;;;;;;32.17;3.93;;;;;;;25.34;56.65;99481.56;7310317;19;130182;-35
2022/07/31 03:37:49;;;;;;;24.23;3.40;;;;;;;25.34;56.75;99485.97;7308421;19;129283;-40
2022/07/31 03:40:14;;;;;;;29.03;4.10;;;;;;;25.25;56.69;99468.56;7309584;19;130693;-36
2022/07/31 03:42:41;;;;;;;28.00;3.55;;;;;;;25.33;56.23;99485.19;7309265;19;130177;-38
2022/07/31 03:45:08;;;;;;;43.67;4.80;;;;;;;25.35;56.31;99490.31;7310756;19;129557;-38
2022/07/31 03:47:33;;;;;;;44.38;4.47;;;;;;;25.33;56.49;99490.44;7307327;19;130131;-36
2022/07/31 03:50:00;;;;;;;39.23;4.57;;;;;;;25.35;56.32;99487.69;7307934;19;129713;-36
2022/07/31 03:52:27;;;;;;;25.52;3.42;;;;;;;25.34;56.27;99497.34;7311222;19;129027;-38
2022/07/31 03:54:52;;;;;;;31.70;3.72;;;;;;;25.33;56.88;99490.44;7309929;19;129060;-37
2022/07/31 03:57:19;;;;;;;29.63;3.73;;;;;;;25.34;56.94;99499.16;7310286;19;130219;-40
2022/07/31 03:59:45;;;;;;;39.92;4.65;;;;;;;25.32;55.88;99498.50;7307101;19;129164;-35
2022/07/31 04:02:11;;;;;;;31.27;3.77;;;;;;;25.34;56.91;99497.34;7309304;19;130362;-37
2022/07/31 04:04:37;;;;;;;31.87;3.90;;;;;;;25.35;56.77;99503.47;7311175;19;129575;-38
2022/07/31 04:07:04;;;;;;;43.28;5.30;;;;;;;25.32;57.22;99499.31;7311095;19;130625;-37
2022/07/31 04:09:29;;;;;;;;;;;;;;;25.40;58.09;99495.91;7307738;19;129700;-35
2022/07/31 04:11:54;;;;;;;27.23;3.60;;;;;;;25.36;56.23;99505.09;7309984;19;129941;-35
2022/07/31 04:14:20;;;;;;;26.83;3.80;;;;;;;25.33;56.52;99506.25;7310244;19;130593;-37
2022/07/31 04:16:45;;;;;;;26.43;3.43;;;;;;;25.33;55.48;99500.16;7309730;19;129570;-33
2022/07/31 04:19:11;;;;;;;43.57;5.13;;;;;;;25.25;56.71;99492.25;7305856;19;129473;-38
2022/07/31 04:21:36;;;;;;;28.63;3.57;;;;;;;25.33;56.43;99510.66;7308654;19;129542;-30
2022/07/31 04:24:02;;;;;;;19.43;2.93;;;;;;;25.34;56.18;99502.59;7308800;19;128985;-42
2022/07/31 04:26:28;;;;;;;27.37;3.70;;;;;;;25.26;56.77;99493.91;7309502;19;129058;-38
2022/07/31 04:28:53;;;;;;;22.02;3.08;;;;;;;25.33;56.20;99515.94;7306306;19;130472;-39
2022/07/31 04:31:19;;;;;;;30.17;3.63;;;;;;;25.33;57.03;99508.03;7309996;19;129441;-30
2022/07/31 04:33:44;;;;;;;23.23;3.47;;;;;;;25.33;57.04;99515.94;7309581;19;131028;-35
2022/07/31 04:36:09;;;;;;;45.67;5.07;;;;;;;25.25;56.62;99498.34;7308222;19;129324;-40
2022/07/31 04:38:35;;;;;;;32.30;4.00;;;;;;;25.32;56.72;99507.22;7300383;19;129499;-31
2022/07/31 04:41:00;;;;;;;20.97;3.07;;;;;;;25.27;56.56;99506.09;7308286;19;129103;-34
2022/07/31 04:43:25;;;;;;;27.30;3.33;;;;;;;25.33;56.07;99513.31;7309016;19;130851;-35
2022/07/31 04:45:51;;;;;;;25.23;3.30;;;;;;;25.30;57.00;99511.81;7309095;19;129186;-36
2022/07/31 04:48:16;;;;;;;54.10;5.77;;;;;;;25.34;56.49;99522.84;7310335;19;129663;-31
2022/07/31 04:50:42;;;;;;;16.57;3.07;;;;;;;25.33;56.84;99518.56;7316241;19;130171;-36
2022/07/31 04:53:07;;;;;;;27.13;3.53;;;;;;;25.33;56.19;99521.19;7316392;19;129500;-32
2022/07/31 04:55:32;;;;;;;44.73;4.87;;;;;;;25.33;56.39;99526.47;7309694;19;129654;-34
2022/07/31 04:57:58;;;;;;;18.73;2.97;;;;;;;25.33;57.11;99524.66;7313879;19;129511;-43
2022/07/31 05:00:23;;;;;;;33.77;4.27;;;;;;;25.32;56.48;99523.00;7314414;19;128772;-30
2022/07/31 05:02:49;;;;;;;25.30;3.47;;;;;;;25.32;56.52;99525.63;7313477;19;129326;-37
2022/07/31 05:05:16;;;;;;;25.70;3.63;;;;;;;25.33;57.15;99531.72;7314099;19;129213;-38
2022/07/31 05:07:41;;;;;;;30.35;3.85;;;;;;;25.31;56.53;99531.06;7313927;19;129337;-36
2022/07/31 05:10:07;;;;;;;33.43;4.17;;;;;;;25.32;56.69;99524.84;7314966;19;130161;-34
2022/07/31 05:12:32;;;;;;;44.20;4.67;;;;;;;25.31;56.45;99529.25;7314027;19;130325;-35
2022/07/31 05:14:58;;;;;;;26.43;3.47;;;;;;;25.31;56.92;99533.69;7315262;19;130292;-32
2022/07/31 05:17:23;;;;;;;39.93;4.73;;;;;;;25.32;57.07;99533.53;7314129;19;130819;-39
2022/07/31 05:19:49;;;;;;;22.77;3.27;;;;;;;25.31;55.90;99538.97;7315102;19;129572;-39
2022/07/31 05:22:14;;;;;;;29.80;3.43;;;;;;;25.31;56.57;99536.31;7311094;19;129101;-36
2022/07/31 05:24:40;;;;;;;31.70;3.87;;;;;;;25.32;55.72;99535.34;7315105;19;130061;-34
2022/07/31 05:27:05;;;;;;;25.10;3.27;;;;;;;25.32;56.36;99527.47;7314122;19;129204;-39
2022/07/31 05:29:32;;;;;;;56.83;5.50;;;;;;;25.31;56.51;99533.69;7310603;19;130585;-40
2022/07/31 05:31:58;;;;;;;;;;;;;;;25.39;58.54;99531.91;7315801;19;129576;-33
2022/07/31 05:34:23;;;;;;;39.10;4.63;;;;;;;25.33;55.95;99537.00;7314124;19;129208;-36
2022/07/31 05:36:49;;;;;;;31.83;4.00;;;;;;;25.32;56.73;99540.63;7313228;19;131377;-39
2022/07/31 05:39:16;;;;;;;44.07;4.83;;;;;;;25.32;55.93;99535.34;7311555;19;130108;-35
2022/07/31 05:41:42;;;;;;;33.30;3.78;;;;;;;25.30;56.59;99534.69;7311287;19;129111;-34
2022/07/31 05:44:07;;;;;;;26.00;3.50;;;;;;;25.31;57.00;99536.31;7314685;19;129889;-39
2022/07/31 05:46:32;;;;;;;12.93;2.63;;;;;;;25.31;56.50;99538.97;7313078;19;130045;-36
2022/07/31 05:48:58;;;;;;;25.23;3.03;;;;;;;25.31;56.36;99541.59;7311584;19;129220;-35
2022/07/31 05:51:23;;;;;;;31.70;3.87;;;;;;;25.30;56.67;99538.13;7311793;19;131341;-41
2022/07/31 05:53:49;;;;;;;14.20;2.80;;;;;;;25.31;57.24;99542.41;7313834;19;130163;-36
2022/07/31 05:56:14;;;;;;;54.03;5.63;;;;;;;25.32;55.74;99540.63;7313466;19;130519;-34
2022/07/31 05:58:39;;;;;;;44.23;4.73;;;;;;;25.31;56.04;99544.22;7311166;19;130039;-33
2022/07/31 06:01:05;;;;;;;29.17;3.70;;;;;;;25.31;56.83;99538.97;7311055;19;130124;-37
2022/07/31 06:03:34;;;;;;;36.40;3.83;;;;;;;25.31;56.54;99544.22;7313075;19;129521;-39
2022/07/31 06:06:00;;;;;;;21.38;3.00;;;;;;;25.30;57.07;99543.38;7314039;19;130118;-33
2022/07/31 06:08:26;;;;;;;35.47;4.00;;;;;;;25.30;56.73;99540.75;7311595;19;129161;-37
2022/07/31 06:10:51;;;;;;;9.50;2.20;;;;;;;25.30;56.19;99537.31;7313501;19;129275;-32
2022/07/31 06:13:17;;;;;;;33.47;4.10;;;;;;;25.31;55.93;99538.97;7313634;19;130781;-36
2022/07/31 06:15:43;;;;;;;29.20;3.58;;;;;;;25.31;56.22;99533.69;7313680;19;131491;-34
2022/07/31 06:18:08;;;;;;;45.70;5.13;;;;;;;25.29;56.72;99530.41;7311740;19;130243;-36
2022/07/31 06:20:34;;;;;;;22.92;3.15;;;;;;;25.30;55.81;99529.44;7314051;19;129568;-34
2022/07/31 06:22:59;;;;;;;26.77;3.60;;;;;;;25.30;56.13;99532.06;7311159;19;129851;-33
2022/07/31 06:25:25;;;;;;;27.77;3.30;;;;;;;25.31;56.06;99528.44;7312496;19;130535;-41
2022/07/31 06:27:50;;;;;;;31.10;3.53;;;;;;;25.31;55.96;99528.44;7312673;19;129140;-32
2022/07/31 06:30:16;;;;;;;35.33;3.83;;;;;;;25.30;56.83;99532.06;7312599;19;129068;-37
2022/07/31 06:32:41;;;;;;;20.53;3.20;;;;;;;25.28;56.14;99529.59;7313411;19;129442;-38
2022/07/31 06:35:07;;;;;;;61.33;5.93;;;;;;;25.23;56.49;99510.00;7311415;19;131335;-34
2022/07/31 06:37:33;;;;;;;27.80;3.40;;;;;;;25.29;55.65;99525.97;7311868;19;129111;-40
2022/07/31 06:39:59;;;;;;;24.33;3.23;;;;;;;25.29;56.30;99527.75;7310502;19;128879;-35
2022/07/31 06:42:25;;;;;;;27.83;3.27;;;;;;;25.29;56.96;99523.34;7309621;19;130448;-37
2022/07/31 06:44:51;;;;;;;45.07;4.47;;;;;;;25.28;55.74;99524.34;7311047;19;129329;-41
2022/07/31 06:47:18;;;;;;;33.50;3.90;;;;;;;25.28;57.02;99523.50;7310118;19;129817;-35
2022/07/31 06:49:43;;;;;;;27.70;3.47;;;;;;;25.29;56.29;99525.13;7309278;19;129282;-39
2022/07/31 06:52:09;;;;;;;29.30;3.40;;;;;;;25.29;55.88;99531.22;7311146;19;129902;-38
2022/07/31 06:54:34;;;;;;;26.33;3.50;;;;;;;25.30;56.47;99529.44;7311370;19;129545;-31
2022/07/31 06:57:00;;;;;;;38.23;4.47;;;;;;;25.29;57.09;99527.75;7311707;19;128933;-37
2022/07/31 06:59:25;;;;;;;54.17;5.50;;;;;;;25.29;57.09;99520.69;7308541;19;129262;-37
2022/07/31 07:01:50;;;;;;;27.47;3.93;;;;;;;25.29;56.85;99528.59;7310007;19;130183;-35
2022/07/31 07:04:16;;;;;;;32.13;3.67;;;;;;;25.31;56.58;99528.44;7312036;19;130331;-39
2022/07/31 07:06:41;;;;;;;42.17;4.37;;;;;;;25.28;55.82;99534.03;7311946;19;129166;-37
2022/07/31 07:09:07;;;;;;;30.13;3.97;;;;;;;25.29;56.20;99530.41;7309702;19;129111;-39
2022/07/31 07:11:32;;;;;;;19.73;2.87;;;;;;;25.29;56.63;99531.22;7308219;19;130501;-37
2022/07/31 07:13:58;;;;;;;23.87;2.80;;;;;;;25.28;55.93;99531.41;7312262;19;129262;-37
2022/07/31 07:16:23;;;;;;;29.57;3.63;;;;;;;25.29;56.88;99535.66;7311729;19;130400;-34
2022/07/31 07:18:49;;;;;;;27.33;3.00;;;;;;;25.30;56.63;99537.31;7309852;19;129352;-39
2022/07/31 07:21:14;;;;;;;25.87;3.70;;;;;;;25.28;56.71;99534.03;7310660;19;129714;-36
2022/07/31 07:23:40;;;;;;;20.77;2.90;;;;;;;25.29;56.66;99525.97;7311654;19;129615;-36
2022/07/31 07:26:06;;;;;;;25.70;3.27;;;;;;;25.20;56.10;99510.34;7311747;19;129691;-37
2022/07/31 07:28:31;;;;;;;21.83;2.90;;;;;;;25.28;56.07;99523.50;7309675;19;129592;-38
2022/07/31 07:30:57;;;;;;;26.73;3.47;;;;;;;25.28;56.27;99528.75;7310765;19;129062;-36
2022/07/31 07:33:23;;;;;;;26.00;3.30;;;;;;;25.19;55.49;99508.69;7311260;19;129120;-39
2022/07/31 07:35:48;;;;;;;30.17;3.43;;;;;;;25.28;56.07;99529.59;7312612;19;128771;-33
2022/07/31 07:38:13;;;;;;;46.00;4.73;;;;;;;25.28;56.59;99528.75;7310737;19;129478;-35
2022/07/31 07:40:39;;;;;;;33.67;3.83;;;;;;;25.28;56.45;99524.34;7312140;19;130211;-36
2022/07/31 07:43:05;;;;;;;27.33;3.07;;;;;;;25.27;56.47;99527.94;7310350;19;130515;-34
2022/07/31 07:45:30;;;;;;;25.87;3.00;;;;;;;25.29;56.34;99522.50;7312206;19;129198;-33
2022/07/31 07:47:56;;;;;;;34.70;4.03;;;;;;;25.28;56.40;99518.25;7310296;19;129345;-37
2022/07/31 07:50:21;;;;;;;28.80;3.33;;;;;;;25.28;57.29;99518.25;7310221;19;130075;-33
2022/07/31 07:52:47;;;;;;;39.90;4.33;;;;;;;25.29;56.87;99517.25;7311177;19;131014;-34
2022/07/31 07:55:12;;;;;;;27.83;3.67;;;;;;;25.28;56.59;99502.44;7311693;19;129077;-44
2022/07/31 07:57:39;;;;;;;54.27;5.40;;;;;;;25.26;56.39;99501.78;7308834;19;129341;-35
2022/07/31 08:00:09;;;;;;;37.90;4.55;;;;;;;25.24;57.07;99501.97;7309944;19;129743;-37
2022/07/31 08:02:35;;;;;;;23.05;3.17;;;;;;;25.28;56.89;99505.09;7309457;19;129716;-36
2022/07/31 08:05:01;;;;;;;25.27;3.30;;;;;;;25.19;56.51;99487.63;7310622;19;129451;-36
2022/07/31 08:07:31;;;;;;;32.00;3.47;;;;;;;25.20;57.71;99499.81;7310372;19;129132;-38
2022/07/31 08:09:58;;;;;;;13.20;2.60;;;;;;;25.24;56.66;99501.97;7308835;19;130448;-38
2022/07/31 08:12:24;;;;;;;36.13;4.35;;;;;;;25.25;56.09;99497.53;7309631;19;129284;-35
2022/07/31 08:14:49;;;;;;;25.23;3.17;;;;;;;25.27;55.88;99503.44;7309722;19;128848;-36
2022/07/31 08:17:15;;;;;;;36.67;4.47;;;;;;;25.28;56.14;99502.44;7309041;19;128913;-35
2022/07/31 08:19:41;;;;;;;29.17;3.97;;;;;;;25.26;56.53;99499.16;7306675;19;129611;-36
2022/07/31 08:22:07;;;;;;;29.37;3.67;;;;;;;25.25;55.83;99495.72;7309063;19;130617;-35
2022/07/31 08:24:33;;;;;;;32.15;4.15;;;;;;;25.25;56.10;99501.00;7316490;19;129652;-39
2022/07/31 08:29:44;;;;;;;28.58;3.85;;;;;;;25.23;55.75;99489.78;7313454;19;128932;-37
2022/07/31 08:32:09;;;;;;;30.27;3.53;;;;;;;25.19;55.95;99482.38;7316502;19;130242;-31
2022/07/31 08:34:35;;;;;;;39.90;4.27;;;;;;;25.21;55.33;99485.66;7315945;19;129310;-44
2022/07/31 08:37:00;;;;;;;33.63;3.83;;;;;;;25.23;56.16;99478.44;7303704;19;130342;-40
2022/07/31 08:39:26;;;;;;;24.80;3.47;;;;;;;25.21;56.76;99475.16;7309146;19;129951;-33
2022/07/31 08:41:51;;;;;;;28.00;4.07;;;;;;;25.22;56.38;99476.81;7306387;19;130316;-36
2022/07/31 08:44:17;;;;;;;35.53;4.40;;;;;;;25.22;55.95;99482.06;7310423;19;129837;-38
2022/07/31 08:46:44;;;;;;;69.60;7.17;;;;;;;25.22;55.26;99482.06;7308418;19;130514;-38
2022/07/31 08:49:11;;;;;;;;;;;;;;;25.29;58.19;99483.03;7310285;19;129233;-45
2022/07/31 08:51:43;;;;;;;48.90;5.45;;;;;;;25.23;56.35;99488.97;7307235;19;130180;-37
2022/07/31 08:54:10;;;;;;;53.10;5.80;;;;;;;25.22;55.17;99476.81;7311372;19;130232;-37
2022/07/31 08:56:39;;;;;;;51.25;5.70;;;;;;;25.22;57.55;99482.06;7308401;19;133114;-39
2022/07/31 08:59:06;;;;;;;28.98;3.78;;;;;;;25.20;55.15;99484.03;7308900;19;129788;-38
2022/07/31 09:01:33;;;;;;;79.05;7.53;;;;;;;25.21;56.07;99483.03;7307338;19;129966;-37
2022/07/31 09:03:59;;;;;;;36.22;4.63;;;;;;;25.20;56.08;99469.09;7313264;19;129288;-32
2022/07/31 09:06:25;;;;;;;71.33;7.27;;;;;;;25.22;56.35;99487.34;7308792;19;129048;-40
2022/07/31 09:08:51;;;;;;;38.80;4.40;;;;;;;25.22;57.00;99466.28;7310834;19;130844;-36
2022/07/31 09:11:17;;;;;;;44.80;5.53;;;;;;;25.20;55.63;99463.00;7310958;19;130550;-36
2022/07/31 09:13:56;;;;;;;56.78;6.00;;;;;;;25.23;57.69;99467.91;7309470;19;130711;-38
2022/07/31 09:16:22;;;;;;;70.15;6.85;;;;;;;25.24;54.89;99462.47;7309954;19;129588;-38
2022/07/31 09:18:58;;;;;;;38.13;4.57;;;;;;;25.24;57.75;99461.66;7309204;19;131126;-37
2022/07/31 09:21:24;;;;;;;31.80;3.78;;;;;;;25.22;56.49;99461.03;7310658;19;129511;-32
2022/07/31 09:23:50;;;;;;;90.13;8.40;;;;;;;25.23;56.00;99452.13;7306965;19;129312;-35
2022/07/31 09:26:16;;;;;;;27.87;3.57;;;;;;;25.23;55.54;99452.13;7312227;19;130256;-35
2022/07/31 09:28:46;;;;;;;29.17;3.77;;;;;;;25.23;55.52;99452.13;7301509;19;132134;-33
2022/07/31 09:31:12;;;;;;;54.08;5.82;;;;;;;25.22;55.73;99439.97;7307777;19;130845;-39
2022/07/31 09:33:42;;;;;;;32.08;4.15;;;;;;;25.24;56.55;99451.97;7306785;19;130672;-40
2022/07/31 09:36:08;;;;;;;34.20;4.43;;;;;;;25.24;56.03;99446.69;7312237;19;129623;-34
2022/07/31 09:38:42;;;;;;;23.73;3.27;;;;;;;25.22;57.30;99451.28;7307431;19;131880;-36
2022/07/31 09:41:09;;;;;;;34.28;4.22;;;;;;;25.23;56.04;99446.88;7311235;19;129360;-32
2022/07/31 09:43:35;;;;;;;;;;;;;;;25.31;58.06;99433.69;7306075;19;131077;-37
2022/07/31 09:46:01;;;;;;;24.98;3.42;;;;;;;25.23;55.63;99436.34;7308285;19;129901;-33
2022/07/31 09:48:27;;;;;;;40.35;4.78;;;;;;;25.24;54.91;99437.97;7309170;19;131366;-38
2022/07/31 09:50:56;;;;;;;21.07;3.47;;;;;;;25.24;55.73;99432.72;7313337;19;129101;-38
2022/07/31 09:53:22;;;;;;;32.28;3.90;;;;;;;25.22;55.24;99437.34;7312795;19;130509;-39
2022/07/31 09:55:51;;;;;;;64.63;6.47;;;;;;;25.22;56.28;99429.44;7311939;19;129066;-41
2022/07/31 09:58:17;;;;;;;63.55;6.78;;;;;;;25.24;54.80;99437.97;7308374;19;130906;-36
2022/07/31 10:00:42;;;;;;;21.60;3.57;;;;;;;25.23;54.72;99446.88;7311181;19;130148;-45
2022/07/31 10:03:08;;;;;;;32.10;4.00;;;;;;;25.22;56.06;99424.19;7308454;19;129533;-35
2022/07/31 10:05:36;;;;;;;36.03;4.33;;;;;;;25.20;55.62;99436.69;7312423;19;128928;-40
2022/07/31 10:08:03;;;;;;;71.07;7.15;;;;;;;25.09;55.37;99406.25;7307982;19;129614;-42
2022/07/31 10:10:31;;;;;;;21.95;3.40;;;;;;;25.19;55.80;99413.97;7311681;19;130354;-32
2022/07/31 10:13:00;;;;;;;47.35;5.10;;;;;;;25.18;56.36;99412.34;7308362;19;131379;-38
2022/07/31 10:15:27;;;;;;;47.30;5.22;;;;;;;25.18;56.50;99421.06;7310683;19;130565;-36
2022/07/31 10:17:53;;;;;;;46.55;4.88;;;;;;;25.20;56.00;99418.25;7305001;19;130593;-40
2022/07/31 10:20:22;;;;;;;41.07;4.87;;;;;;;25.21;56.63;99417.25;7310057;19;131102;-37
2022/07/31 10:22:52;;;;;;;33.47;4.72;;;;;;;25.21;56.52;99418.09;7304709;19;130250;-37
2022/07/31 10:25:26;;;;;;;16.98;3.00;;;;;;;25.22;58.23;99424.19;7306932;19;130255;-35
2022/07/31 10:27:53;;;;;;;28.65;3.80;;;;;;;25.22;57.05;99426.81;7303462;19;130311;-40
2022/07/31 10:30:19;;;;;;;;;;;;;;;25.21;58.07;99409.38;7310573;19;131705;-31
2022/07/31 10:32:45;;;;;;;86.78;8.23;;;;;;;25.23;56.64;99421.38;7307211;19;131415;-41
2022/07/31 10:35:11;;;;;;;56.27;5.80;;;;;;;25.23;56.42;99418.75;7304315;19;130149;-34
2022/07/31 10:37:51;;;;;;;26.97;4.00;;;;;;;25.25;57.65;99418.56;7310389;19;130100;-33
2022/07/31 10:40:44;;;;;;;58.20;5.93;;;;;;;25.25;57.36;99413.31;7308262;19;129911;-38
2022/07/31 10:43:15;;;;;;;55.85;5.50;;;;;;;25.29;57.10;99411.97;7307551;19;130713;-36
2022/07/31 10:45:49;;;;;;;49.08;5.07;;;;;;;25.31;56.86;99412.63;7307359;19;130562;-37
2022/07/31 10:48:15;;;;;;;80.90;8.02;;;;;;;25.30;55.31;99417.06;7298865;19;131401;-43
2022/07/31 10:50:40;;;;;;;61.10;6.40;;;;;;;25.31;55.62;99412.63;7305046;19;129616;-39
2022/07/31 10:53:11;;;;;;;56.27;5.77;;;;;;;25.30;56.43;99411.00;7305336;19;130283;-35
2022/07/31 10:55:37;;;;;;;49.33;6.03;;;;;;;25.25;56.27;99408.06;7305975;19;130217;-44
2022/07/31 10:58:14;;;;;;;53.40;5.63;;;;;;;25.25;57.61;99406.25;7304395;19;129806;-34
2022/07/31 11:00:40;;;;;;;70.50;7.63;;;;;;;25.24;55.58;99412.50;7302122;19;131210;-38
2022/07/31 11:03:20;;;;;;;29.05;3.80;;;;;;;25.27;57.64;99404.25;7308144;19;129864;-33
2022/07/31 11:05:59;;;;;;;64.13;6.63;;;;;;;25.27;57.22;99403.44;7298236;19;131352;-39
2022/07/31 11:08:25;;;;;;;66.35;6.78;;;;;;;25.24;55.62;99395.88;7303552;19;130146;-39
2022/07/31 11:10:52;;;;;;;46.60;4.93;;;;;;;25.26;56.13;99399.16;7303003;19;131478;-38
2022/07/31 11:13:19;;;;;;;32.33;3.97;;;;;;;25.27;56.07;99406.09;7306391;19;130845;-40
2022/07/31 11:15:45;;;;;;;61.38;6.35;;;;;;;25.24;56.17;99388.81;7300700;19;130973;-41
2022/07/31 11:18:15;;;;;;;57.53;6.13;;;;;;;25.21;57.49;99389.16;7302112;19;129999;-40
2022/07/31 11:20:45;;;;;;;81.03;7.88;;;;;;;25.23;55.65;99399.50;7306239;19;130504;-37